Terminal Aerodrome Forecast
Issued by NWS

Home | Current Version | Previous Version | Text Only | Print | Product List | Glossary On
Versions: 1 2 3 4 5 6 7 8 9 10 11 12 13 14 15 16 17 18 19 20 21 22 23 24 25 26 27 28 29 30 31 32 33 34 35 36 37 38 39 40 41
000
FTUS44 KHGX 220555 CCA
TAFCXO
TAF COR
KCXO 220555Z 2206/2306 16009KT P6SM BKN009 OVC035
     FM221600 20013G23KT P6SM BKN015
     FM221800 23011G21KT P6SM BKN025 BKN250
     FM222100 27010G20KT P6SM BKN250
     FM230100 32005KT P6SM BKN250=

USA.gov is the U.S. government's official web portal to all federal, state and local government web resources and services.